createdAt,value
2022-11-05T00:06:16.960Z,7.89
2022-11-05T00:16:36.674Z,7.79
2022-11-05T00:26:38.028Z,7.66
2022-11-05T00:36:39.372Z,7.57
2022-11-05T00:46:40.691Z,7.38
2022-11-05T00:56:42.034Z,7.27
2022-11-05T01:06:43.385Z,7.27
2022-11-05T01:16:45.403Z,7.28
2022-11-05T01:26:46.747Z,7.18
2022-11-05T01:36:48.079Z,7.08
2022-11-05T01:46:49.445Z,7.05
2022-11-05T01:56:55.761Z,6.96
2022-11-05T02:06:57.618Z,6.87
2022-11-05T02:17:10.942Z,6.76
2022-11-05T02:27:30.536Z,6.67
2022-11-05T02:37:40.452Z,6.63
2022-11-05T02:47:47.394Z,6.53
2022-11-05T02:57:48.777Z,6.51
2022-11-05T03:08:02.789Z,6.42
2022-11-05T03:18:26.825Z,6.38
2022-11-05T03:28:32.250Z,6.29
2022-11-05T03:38:40.399Z,6.21
2022-11-05T03:48:46.576Z,6.13
2022-11-05T03:58:48.699Z,6.04
2022-11-05T04:09:09.155Z,6.02
2022-11-05T04:19:10.473Z,5.94
2022-11-05T04:29:30.343Z,5.83
2022-11-05T04:39:31.661Z,5.77
2022-11-05T04:49:33.279Z,5.66
2022-11-05T04:59:34.622Z,5.64
2022-11-05T05:09:35.961Z,5.58
2022-11-05T05:19:57.275Z,5.53
2022-11-05T05:29:59.534Z,5.48
2022-11-05T05:40:00.903Z,5.43
2022-11-05T05:50:02.261Z,5.39
2022-11-05T06:00:05.319Z,5.36
2022-11-05T06:10:06.979Z,5.32
2022-11-05T06:20:08.973Z,5.22
2022-11-05T06:30:10.806Z,5.20
2022-11-05T06:40:12.177Z,5.17
2022-11-05T06:50:13.610Z,5.17
2022-11-05T07:00:15.458Z,5.21
2022-11-05T07:10:18.314Z,5.20
2022-11-05T07:20:20.734Z,5.21
2022-11-05T07:30:22.079Z,5.23
2022-11-05T07:40:25.751Z,5.38
2022-11-05T07:50:33.269Z,5.54
2022-11-05T08:00:34.752Z,5.73
2022-11-05T08:10:37.627Z,5.94
2022-11-05T08:20:40.303Z,6.03
2022-11-05T08:30:41.988Z,6.28
2022-11-05T08:40:45.414Z,6.56
2022-11-05T08:50:48.525Z,6.90
2022-11-05T09:00:50.274Z,7.16
2022-11-05T09:10:51.707Z,7.41
2022-11-05T09:20:53.120Z,7.42
2022-11-05T09:30:54.545Z,7.91
2022-11-05T09:41:08.555Z,7.84
2022-11-05T09:51:14.447Z,8.04
2022-11-05T10:01:24.773Z,8.37
2022-11-05T10:11:40.417Z,8.42
2022-11-05T10:22:05.452Z,8.57
2022-11-05T10:32:05.721Z,8.80
2022-11-05T10:42:13.827Z,8.89
2022-11-05T10:52:35.636Z,8.95
2022-11-05T11:02:37.126Z,9.38
2022-11-05T11:12:43.291Z,9.75
2022-11-05T11:22:59.098Z,9.57
2022-11-05T11:33:09.330Z,9.91
2022-11-05T11:43:27.277Z,10.04
2022-11-05T11:53:35.385Z,10.20
2022-11-05T12:03:45.754Z,10.26
2022-11-05T12:14:04.550Z,10.22
2022-11-05T12:24:43.424Z,10.52
2022-11-05T12:35:02.760Z,10.77
2022-11-05T12:45:09.950Z,10.91
2022-11-05T12:55:17.625Z,10.93
2022-11-05T13:05:37.564Z,10.96
2022-11-05T13:15:47.663Z,11.11
2022-11-05T13:25:55.612Z,11.07
2022-11-05T13:36:22.792Z,11.12
2022-11-05T13:46:40.665Z,11.14
2022-11-05T13:57:09.368Z,11.19
2022-11-05T14:07:22.544Z,11.21
2022-11-05T14:17:33.552Z,11.21
2022-11-05T14:27:37.734Z,11.27
2022-11-05T14:37:53.036Z,11.19
2022-11-05T14:47:58.007Z,11.22
2022-11-05T14:57:59.295Z,11.22
2022-11-05T15:08:24.551Z,11.18
2022-11-05T15:18:40.550Z,11.12
2022-11-05T15:29:02.186Z,11.09
2022-11-05T15:39:30.156Z,11.00
2022-11-05T15:49:31.857Z,10.92
2022-11-05T15:59:34.969Z,10.86
2022-11-05T16:09:39.980Z,10.81
2022-11-05T16:19:42.153Z,10.79
2022-11-05T16:29:55.426Z,10.75
2022-11-05T16:39:56.758Z,10.79
2022-11-05T16:49:58.466Z,10.74
2022-11-05T17:00:00.645Z,10.76
2022-11-05T17:10:01.999Z,10.71
2022-11-05T17:20:03.604Z,10.74
2022-11-05T17:30:05.587Z,10.71
2022-11-05T17:40:08.251Z,10.74
2022-11-05T17:50:13.449Z,10.71
2022-11-05T18:00:20.649Z,10.65
2022-11-05T18:10:23.366Z,10.71
2022-11-05T18:20:24.762Z,10.67
2022-11-05T18:30:26.093Z,10.70
2022-11-05T18:40:27.631Z,10.74
2022-11-05T18:50:29.457Z,10.69
2022-11-05T19:00:31.990Z,10.67
2022-11-05T19:10:33.327Z,10.66
2022-11-05T19:20:37.757Z,10.69
2022-11-05T19:30:39.542Z,10.61
2022-11-05T19:40:40.911Z,10.56
2022-11-05T19:50:43.512Z,10.50
2022-11-05T20:00:44.871Z,10.43
2022-11-05T20:10:46.295Z,10.37
2022-11-05T20:20:47.853Z,10.41
2022-11-05T20:30:49.204Z,10.34
2022-11-05T20:40:50.747Z,10.22
2022-11-05T20:50:52.797Z,10.23
2022-11-05T21:00:55.941Z,10.22
2022-11-05T21:10:57.362Z,10.16
2022-11-05T21:21:00.297Z,10.11
2022-11-05T21:31:03.244Z,10.04
2022-11-05T21:41:05.638Z,10.04
2022-11-05T21:51:26.222Z,10.03
2022-11-05T22:01:27.793Z,9.94
2022-11-05T22:11:29.447Z,9.87
2022-11-05T22:21:30.799Z,9.88
2022-11-05T22:31:36.225Z,9.71
2022-11-05T22:41:38.517Z,9.72
2022-11-05T22:51:40.587Z,9.74
2022-11-05T23:01:44.109Z,9.83
2022-11-05T23:11:51.889Z,9.74
2022-11-05T23:22:11.713Z,9.75
2022-11-05T23:32:24.864Z,9.69
2022-11-05T23:42:44.824Z,9.57
2022-11-05T23:52:46.182Z,9.47
